Fieldon, IL (62031)

10:45 AM CDT on July 01, 2015 (GMT -0500)
Blue Ridge | | Change Station
CLOSE
Current Station
Personal Weather Station
Location: Hardin, IL
Elevation: 748 ft
Nearby Weather Stations

Elev 748 ft 39.15 °N, 90.65 °W | Updated 1 minute ago

Overcast
Overcast
73.9 °F
Feels Like 73 °F
N
3.0
Wind Variable Wind from NW
Gusts 11.0 mph

Today
High -- | Low -- °F
--% Chance of Precip.
Yesterday
High -- | Low -- °F
Precip. -- in
5:39 AM 8:32 PM
Full, 100% visible
Pressure 29.91 in
Visibility 7.0 miles
Clouds Few 3300 ft
Mostly Cloudy 3900 ft
Mostly Cloudy 10000 ft
Heat Index 73 °F
Dew Point 70 °F
Humidity 86%
Rainfall 0.00 in
Snow Depth Not available.
UV 4 out of 12
Pollen .60 out of 12
Air Quality Not available.
Flu Activity Not available.
METAR KSET 011454Z AUTO 25008KT 7SM FEW033 BKN039 BKN100 23/20 A2992 RMK AO2 SLP127 T02330200 53008

More Conditions Fewer Conditions

Pressure 29.91 in
Visibility 7.0 miles
Clouds Few 3300 ft
Mostly Cloudy 3900 ft
Mostly Cloudy 10000 ft
Heat Index 73 °F
Dew Point 70 °F
Humidity 86%
Rainfall 0.00 in
Snow Depth Not available.
UV 4 out of 12
Pollen .60 out of 12
Air Quality Not available.
Flu Activity Not available.
METAR KSET 011454Z AUTO 25008KT 7SM FEW033 BKN039 BKN100 23/20 A2992 RMK AO2 SLP127 T02330200 53008

More Conditions Fewer Conditions

10-Day Weather Forecast

×

Almanac

Astronomy

Jul. 01, 2015 Rise Set
Actual Time
Civil Twilight
Nautical Twilight
Astronomical Twilight
Moon
Length of Visible Light
Length of Day
Tomorrow will be .
, % of the Moon is Illuminated

Today's Extremes

State Highs State Lows

Community

WunderPhotos

Upload Photos

1,834,232 photos uploaded!

WunderBlogs® & News

Nearby

Air Quality

  Air Quality AQ Index Pollutant
Not available.

Snow Depth

Station Depth Elevation

Earthquake Activity

City Distance Mag. Time & Date
Minimum magnitude displayed is 2.5.

Coastal Water Temperatures

Place Temperature

Stations

Nearby Weather Stations

Station Location Temp. Windchill Dew Point Humidity Wind Precip. Elev Updated Type